createdAt,value
2019-03-28T00:03:30.759Z,4.63
2019-03-28T00:08:32.475Z,4.62
2019-03-28T00:13:34.502Z,4.63
2019-03-28T00:18:36.217Z,4.65
2019-03-28T00:23:39.930Z,4.65
2019-03-28T00:28:41.737Z,4.69
2019-03-28T00:33:44.371Z,4.74
2019-03-28T00:38:46.057Z,4.76
2019-03-28T00:43:47.768Z,4.78
2019-03-28T00:48:50.572Z,4.81
2019-03-28T00:53:52.179Z,4.84
2019-03-28T00:58:53.902Z,4.84
2019-03-28T01:03:55.623Z,4.85
2019-03-28T01:08:57.237Z,4.86
2019-03-28T01:13:59.014Z,4.88
2019-03-28T01:19:00.739Z,4.88
2019-03-28T01:24:02.538Z,4.90
2019-03-28T01:29:04.242Z,4.89
2019-03-28T01:34:06.363Z,4.90
2019-03-28T01:39:08.017Z,4.91
2019-03-28T01:44:10.400Z,4.89
2019-03-28T01:49:12.015Z,4.92
2019-03-28T01:54:13.626Z,4.92
2019-03-28T01:59:15.334Z,4.91
2019-03-28T02:04:16.980Z,4.91
2019-03-28T02:09:18.840Z,4.95
2019-03-28T02:14:20.449Z,4.99
2019-03-28T02:19:22.133Z,4.98
2019-03-28T02:24:23.741Z,4.98
2019-03-28T02:29:25.389Z,5.02
2019-03-28T02:34:26.994Z,5.00
2019-03-28T02:39:28.720Z,5.07
2019-03-28T02:44:30.454Z,5.10
2019-03-28T02:49:32.102Z,5.10
2019-03-28T02:54:33.867Z,5.15
2019-03-28T02:59:35.467Z,5.17
2019-03-28T03:04:37.207Z,5.19
2019-03-28T03:09:39.102Z,5.10
2019-03-28T03:14:40.705Z,5.07
2019-03-28T03:19:42.442Z,5.03
2019-03-28T03:24:44.042Z,5.01
2019-03-28T03:29:45.645Z,5.03
2019-03-28T03:34:47.302Z,5.03
2019-03-28T03:39:48.916Z,5.05
2019-03-28T03:44:50.898Z,5.02
2019-03-28T03:49:52.549Z,4.95
2019-03-28T03:54:54.146Z,4.91
2019-03-28T03:59:55.821Z,4.83
2019-03-28T04:04:57.473Z,4.77
2019-03-28T04:09:59.179Z,4.70
2019-03-28T04:15:01.287Z,4.66
2019-03-28T04:20:05.625Z,4.64
2019-03-28T04:25:07.800Z,4.61
2019-03-28T04:30:09.910Z,4.56
2019-03-28T04:35:11.523Z,4.55
2019-03-28T04:40:13.332Z,4.53
2019-03-28T04:45:15.007Z,4.47
2019-03-28T04:50:16.705Z,4.44
2019-03-28T04:55:18.611Z,4.41
2019-03-28T05:00:20.935Z,4.36
2019-03-28T05:05:22.547Z,4.28
2019-03-28T05:10:24.150Z,4.25
2019-03-28T05:15:25.788Z,4.25
2019-03-28T05:20:27.397Z,4.19
2019-03-28T05:25:29.043Z,4.21
2019-03-28T05:30:30.787Z,4.20
2019-03-28T05:35:32.385Z,4.19
2019-03-28T05:40:33.983Z,4.23
2019-03-28T05:45:35.831Z,4.28
2019-03-28T05:50:37.499Z,4.33
2019-03-28T05:55:39.099Z,4.40
2019-03-28T06:00:40.751Z,4.44
2019-03-28T06:05:42.558Z,4.50
2019-03-28T06:10:44.279Z,4.54
2019-03-28T06:15:45.965Z,4.60
2019-03-28T06:20:47.770Z,4.65
2019-03-28T06:25:49.611Z,4.68
2019-03-28T06:30:51.503Z,4.75
2019-03-28T06:35:53.108Z,4.83
2019-03-28T06:40:54.720Z,4.93
2019-03-28T06:45:56.451Z,4.97
